Time;durP1;ratioP1;P1;durP2;ratioP2;P2;SDS_P1;SDS_P2;PMS_P1;PMS_P2;Temp;Humidity;BMP_temperature;BMP_pressure;BME280_temperature;BME280_humidity;BME280_pressure;Samples;Min_cycle;Max_cycle;Signal;HPM_P1;HPM_P2
2023/01/24 00:01:11;;;;;;;11.05;8.38;;;2.80;99.90;;;;;;5021344;28;20260;-70
2023/01/24 00:03:37;;;;;;;11.40;7.53;;;2.80;99.90;;;;;;5022459;28;20232;-72
2023/01/24 00:06:03;;;;;;;9.13;8.05;;;2.80;99.90;;;;;;5011114;28;20197;-72
2023/01/24 00:08:28;;;;;;;10.80;8.70;;;2.80;99.90;;;;;;5009014;28;20682;-72
2023/01/24 00:11:02;;;;;;;9.85;7.93;;;2.80;99.90;;;;;;5015741;28;20241;-74
2023/01/24 00:13:28;;;;;;;10.20;8.60;;;2.90;99.90;;;;;;5014834;28;20561;-72
2023/01/24 00:16:14;;;;;;;9.30;8.02;;;2.90;99.90;;;;;;5012807;28;20196;-72
2023/01/24 00:18:40;;;;;;;10.30;8.90;;;2.80;99.90;;;;;;5017072;28;20181;-72
2023/01/24 00:21:11;;;;;;;8.43;7.63;;;2.80;99.90;;;;;;5014152;28;20743;-71
2023/01/24 00:23:37;;;;;;;9.65;8.70;;;2.80;99.90;;;;;;5017233;28;20223;-71
2023/01/24 00:26:03;;;;;;;9.85;7.63;;;2.80;99.90;;;;;;5018376;28;20173;-72
2023/01/24 00:28:29;;;;;;;9.32;7.60;;;2.70;99.90;;;;;;5016445;28;20189;-71
2023/01/24 00:30:55;;;;;;;9.13;7.97;;;2.70;99.90;;;;;;5013446;28;20215;-71
2023/01/24 00:33:21;;;;;;;8.98;7.40;;;2.70;99.90;;;;;;5022595;28;20204;-71
2023/01/24 00:35:46;;;;;;;10.07;7.07;;;2.70;99.90;;;;;;5017409;28;20547;-73
2023/01/24 00:38:12;;;;;;;10.50;7.18;;;2.70;99.90;;;;;;5019586;28;20311;-73
2023/01/24 00:40:37;;;;;;;9.77;7.13;;;2.70;99.90;;;;;;5022372;28;20192;-72
2023/01/24 00:43:03;;;;;;;8.82;7.35;;;2.70;99.90;;;;;;5016554;28;20664;-72
2023/01/24 00:45:28;;;;;;;8.55;7.68;;;2.70;99.90;;;;;;5018903;28;20182;-72
2023/01/24 00:47:54;;;;;;;9.15;7.10;;;2.70;99.90;;;;;;5019820;28;20177;-72
2023/01/24 00:50:20;;;;;;;10.35;7.50;;;2.60;99.90;;;;;;5017058;28;20256;-72
2023/01/24 00:52:46;;;;;;;7.55;6.80;;;2.70;99.90;;;;;;5025565;28;20226;-72
2023/01/24 00:55:11;;;;;;;7.47;6.65;;;2.70;99.90;;;;;;5016783;28;20205;-72
2023/01/24 00:57:37;;;;;;;10.05;7.22;;;2.70;99.90;;;;;;5021995;28;20165;-72
2023/01/24 01:00:03;;;;;;;9.02;7.63;;;2.60;99.90;;;;;;5009487;28;20217;-73
2023/01/24 01:02:29;;;;;;;8.27;7.45;;;2.70;99.90;;;;;;5025287;28;20181;-72
2023/01/24 01:04:54;;;;;;;9.15;7.57;;;2.80;99.90;;;;;;5025632;28;20270;-72
2023/01/24 01:07:22;;;;;;;8.68;7.03;;;2.80;99.90;;;;;;5012250;28;20181;-73
2023/01/24 01:09:48;;;;;;;7.40;6.57;;;2.80;99.90;;;;;;5024684;28;20208;-73
2023/01/24 01:12:13;;;;;;;7.88;6.75;;;2.80;99.90;;;;;;5019784;28;20174;-73
2023/01/24 01:14:39;;;;;;;7.20;6.47;;;2.90;99.90;;;;;;5020072;28;20189;-73
2023/01/24 01:17:04;;;;;;;8.80;6.50;;;2.90;99.90;;;;;;5027069;28;20184;-73
2023/01/24 01:19:30;;;;;;;8.40;6.95;;;2.80;99.90;;;;;;5017677;28;20646;-70
2023/01/24 01:21:56;;;;;;;7.07;6.20;;;2.80;99.90;;;;;;5031387;28;20197;-74
2023/01/24 01:24:21;;;;;;;6.50;5.82;;;2.80;99.90;;;;;;5019268;28;20224;-74
2023/01/24 01:26:47;;;;;;;8.23;6.50;;;2.90;99.90;;;;;;5022343;28;20350;-74
2023/01/24 01:29:13;;;;;;;6.88;6.18;;;2.90;99.90;;;;;;5025735;28;20376;-73
2023/01/24 01:31:38;;;;;;;7.25;6.30;;;2.90;99.90;;;;;;5028715;28;20177;-74
2023/01/24 01:34:04;;;;;;;6.50;5.90;;;2.90;99.90;;;;;;5042657;28;20203;-74
2023/01/24 01:36:29;;;;;;;8.02;6.53;;;2.90;99.90;;;;;;5021794;28;20196;-73
2023/01/24 01:38:55;;;;;;;7.03;6.35;;;2.90;99.90;;;;;;5023930;28;20172;-73
2023/01/24 01:41:20;;;;;;;7.18;6.40;;;2.90;99.90;;;;;;5017956;28;20737;-73
2023/01/24 01:46:41;;;;;;;7.45;6.47;;;3.00;99.90;;;;;;5024147;28;20282;-73
2023/01/24 01:49:21;;;;;;;6.32;5.72;;;3.00;99.90;;;;;;5011830;28;20191;-73
2023/01/24 01:51:53;;;;;;;7.30;5.57;;;2.90;99.90;;;;;;5020528;28;20172;-74
2023/01/24 01:54:23;;;;;;;6.47;5.80;;;2.90;99.90;;;;;;5026542;28;20606;-74
2023/01/24 01:57:00;;;;;;;6.93;6.25;;;2.90;99.90;;;;;;5020580;28;20185;-73
2023/01/24 01:59:30;;;;;;;6.22;5.63;;;3.00;99.90;;;;;;5016998;28;20172;-73
2023/01/24 02:01:57;;;;;;;6.90;5.85;;;3.00;99.90;;;;;;5022948;28;20256;-73
2023/01/24 02:04:32;;;;;;;6.15;5.60;;;3.00;99.90;;;;;;5024131;28;20204;-73
2023/01/24 02:07:18;;;;;;;6.88;6.18;;;3.00;99.90;;;;;;5021023;28;20192;-73
2023/01/24 02:09:47;;;;;;;6.53;5.38;;;3.00;99.90;;;;;;5024357;28;20204;-73
2023/01/24 02:12:18;;;;;;;6.88;5.82;;;2.90;99.90;;;;;;5009257;28;20191;-74
2023/01/24 02:17:31;;;;;;;5.97;5.47;;;2.90;99.90;;;;;;5017348;28;20211;-72
2023/01/24 02:20:10;;;;;;;6.50;6.00;;;2.90;99.90;;;;;;5014268;28;20181;-73
2023/01/24 02:22:49;;;;;;;6.60;5.53;;;3.00;99.90;;;;;;5007287;28;20267;-72
2023/01/24 02:25:31;;;;;;;6.18;5.55;;;3.00;99.90;;;;;;5008065;28;20239;-73
2023/01/24 02:27:58;;;;;;;7.60;6.10;;;3.00;99.90;;;;;;5005669;28;20200;-73
2023/01/24 02:30:24;;;;;;;6.55;5.95;;;2.90;99.90;;;;;;5020662;28;20208;-74
2023/01/24 02:32:49;;;;;;;5.97;5.38;;;2.90;99.90;;;;;;5018707;28;20188;-74
2023/01/24 02:35:26;;;;;;;6.53;5.93;;;2.90;99.90;;;;;;5027880;28;20949;-74
2023/01/24 02:37:52;;;;;;;5.95;5.38;;;3.00;99.90;;;;;;5015677;28;20283;-72
2023/01/24 02:40:18;;;;;;;5.95;5.35;;;2.90;99.90;;;;;;5005963;28;20656;-72
2023/01/24 02:42:44;;;;;;;5.60;5.10;;;2.90;99.90;;;;;;5006590;28;20181;-72
2023/01/24 02:45:32;;;;;;;5.60;5.10;;;2.90;99.90;;;;;;5011600;28;20734;-73
2023/01/24 02:47:58;;;;;;;5.72;5.22;;;2.90;99.90;;;;;;5016442;28;20224;-73
2023/01/24 02:50:27;;;;;;;6.35;5.75;;;2.90;99.90;;;;;;5016945;28;20196;-72
2023/01/24 02:58:05;;;;;;;6.90;5.55;;;2.80;99.90;;;;;;5012965;28;20184;-72
2023/01/24 02:58:24;;;;;;;6.13;5.20;;;2.80;99.90;;;;;;5014656;28;20191;-72
2023/01/24 03:00:50;;;;;;;6.97;5.60;;;2.80;99.90;;;;;;5014978;28;20170;-71
2023/01/24 03:03:15;;;;;;;5.88;5.38;;;2.70;99.90;;;;;;5012257;28;20180;-71
2023/01/24 03:05:56;;;;;;;5.47;4.97;;;2.70;99.90;;;;;;5015959;28;20192;-72
2023/01/24 03:08:29;;;;;;;5.65;4.57;;;2.70;99.90;;;;;;5010815;28;20194;-72
2023/01/24 03:10:55;;;;;;;5.93;5.32;;;2.60;99.90;;;;;;5013015;28;20725;-72
2023/01/24 03:35:15;;;;;;;6.80;5.80;;;1.80;99.90;;;;;;5014792;28;20215;-72
2023/01/24 03:40:25;;;;;;;6.15;5.55;;;1.80;99.90;;;;;;5014947;28;20553;-72
2023/01/24 03:42:50;;;;;;;5.45;4.93;;;1.70;99.90;;;;;;5016410;28;20177;-73
2023/01/24 03:45:27;;;;;;;6.03;5.28;;;1.70;99.90;;;;;;5023357;28;20204;-72
2023/01/24 03:47:56;;;;;;;6.03;5.13;;;1.60;99.90;;;;;;5016699;28;20177;-72
2023/01/24 03:53:12;;;;;;;8.18;5.70;;;1.40;99.90;;;;;;5023924;28;20715;-72
2023/01/24 03:55:38;;;;;;;7.28;5.72;;;1.40;99.90;;;;;;5011774;28;20173;-72
2023/01/24 03:58:05;;;;;;;6.05;5.43;;;1.40;99.90;;;;;;5011604;28;20185;-72
2023/01/24 04:00:31;;;;;;;6.05;5.53;;;1.30;99.90;;;;;;5012561;28;20401;-72
2023/01/24 04:02:57;;;;;;;5.88;5.28;;;1.30;99.90;;;;;;5010017;28;20192;-72
2023/01/24 04:05:23;;;;;;;6.40;5.70;;;1.20;99.90;;;;;;5020171;28;20208;-72
2023/01/24 04:07:48;;;;;;;5.60;4.85;;;1.20;99.90;;;;;;5018603;28;20181;-72
2023/01/24 04:10:15;;;;;;;5.40;4.90;;;1.20;99.90;;;;;;5016175;28;20193;-72
2023/01/24 04:12:42;;;;;;;5.65;5.00;;;1.20;99.90;;;;;;5026150;28;20306;-72
2023/01/24 04:15:08;;;;;;;6.23;5.63;;;1.10;99.90;;;;;;5022025;28;20199;-72
2023/01/24 04:17:34;;;;;;;6.37;5.70;;;1.10;99.90;;;;;;5028355;28;20178;-73
2023/01/24 04:20:00;;;;;;;6.43;5.57;;;1.10;99.90;;;;;;5028332;28;20268;-72
2023/01/24 04:22:25;;;;;;;6.67;5.33;;;1.00;99.90;;;;;;5021912;28;20274;-72
2023/01/24 04:24:51;;;;;;;6.50;5.77;;;1.00;99.90;;;;;;5025750;28;20258;-72
2023/01/24 04:27:16;;;;;;;6.18;5.57;;;1.00;99.90;;;;;;5026541;28;20701;-72
2023/01/24 04:29:42;;;;;;;5.90;5.30;;;0.90;99.90;;;;;;5028483;28;20208;-72
2023/01/24 04:32:08;;;;;;;6.33;5.73;;;1.00;99.90;;;;;;5014011;28;20185;-71
2023/01/24 04:34:33;;;;;;;6.47;5.77;;;0.90;99.90;;;;;;5022395;28;20709;-72
2023/01/24 04:36:59;;;;;;;6.50;5.87;;;0.90;99.90;;;;;;5021398;28;20211;-72
2023/01/24 04:39:24;;;;;;;6.20;4.97;;;0.90;99.90;;;;;;5018146;28;20555;-72
2023/01/24 04:41:50;;;;;;;5.97;5.37;;;0.90;99.90;;;;;;5017760;28;20201;-72
2023/01/24 04:44:16;;;;;;;6.60;4.97;;;0.90;99.90;;;;;;5012511;28;20205;-72
2023/01/24 04:46:41;;;;;;;6.50;5.67;;;0.90;99.90;;;;;;5014857;28;20203;-72
2023/01/24 04:49:07;;;;;;;5.90;5.30;;;0.80;99.90;;;;;;5018412;28;20647;-72
2023/01/24 04:51:32;;;;;;;6.37;5.67;;;0.80;99.90;;;;;;5025790;28;20201;-72
2023/01/24 04:53:58;;;;;;;5.50;4.77;;;0.90;99.90;;;;;;5025121;28;20197;-73
2023/01/24 04:56:23;;;;;;;6.60;5.90;;;0.80;99.90;;;;;;5028803;28;20201;-73
2023/01/24 04:58:49;;;;;;;6.30;5.70;;;0.80;99.90;;;;;;5021812;28;20655;-72
2023/01/24 05:01:14;;;;;;;5.57;5.07;;;0.80;99.90;;;;;;5023213;28;20181;-72
2023/01/24 05:03:40;;;;;;;5.97;5.37;;;0.80;99.90;;;;;;5023894;28;20633;-72
2023/01/24 05:06:06;;;;;;;6.80;5.83;;;0.80;99.90;;;;;;5031034;28;20200;-72
2023/01/24 05:08:31;;;;;;;6.10;5.50;;;0.80;99.90;;;;;;5021441;28;20189;-72
2023/01/24 05:11:03;;;;;;;6.30;5.37;;;0.80;99.90;;;;;;5027389;28;20284;-72
2023/01/24 05:13:29;;;;;;;6.27;5.23;;;0.80;99.90;;;;;;5023677;28;20200;-72
2023/01/24 05:15:54;;;;;;;7.60;6.73;;;0.80;99.90;;;;;;5025630;28;20203;-73
2023/01/24 05:18:20;;;;;;;6.10;5.50;;;0.80;99.90;;;;;;5026587;28;20183;-72
2023/01/24 05:20:46;;;;;;;6.43;5.57;;;0.90;99.90;;;;;;5025364;28;20188;-72
2023/01/24 05:23:12;;;;;;;6.07;5.13;;;1.00;99.90;;;;;;5028226;28;20243;-72
2023/01/24 05:25:37;;;;;;;7.35;5.60;;;1.10;99.90;;;;;;5020605;28;20188;-72
2023/01/24 05:28:03;;;;;;;5.75;5.25;;;1.20;99.90;;;;;;5027421;28;20188;-72
2023/01/24 05:30:29;;;;;;;6.13;5.55;;;1.30;99.90;;;;;;5019734;28;20283;-72
2023/01/24 05:32:58;;;;;;;6.10;5.50;;;1.40;99.90;;;;;;5026086;28;20177;-72
2023/01/24 05:35:24;;;;;;;6.10;5.53;;;1.40;99.90;;;;;;5031176;28;20644;-72
2023/01/24 05:37:50;;;;;;;5.82;5.22;;;1.50;99.90;;;;;;5026431;28;20207;-72
2023/01/24 05:40:16;;;;;;;6.97;5.57;;;1.50;99.90;;;;;;5010758;28;20546;-72
2023/01/24 05:42:42;;;;;;;5.95;5.35;;;1.70;99.90;;;;;;5016015;28;20241;-72
2023/01/24 05:45:09;;;;;;;5.43;4.85;;;1.80;99.90;;;;;;5008855;28;20235;-72
2023/01/24 05:47:35;;;;;;;6.50;5.90;;;1.80;99.90;;;;;;5021687;28;20559;-72
2023/01/24 05:50:00;;;;;;;6.60;5.95;;;1.80;99.90;;;;;;5012554;28;20197;-72
2023/01/24 05:52:26;;;;;;;5.28;4.78;;;1.90;99.90;;;;;;5024821;28;20177;-72
2023/01/24 05:54:52;;;;;;;5.65;5.15;;;2.10;99.90;;;;;;5014771;28;20201;-72
2023/01/24 05:57:18;;;;;;;6.05;5.45;;;2.10;99.90;;;;;;5013656;28;20231;-72
2023/01/24 05:59:44;;;;;;;6.28;5.68;;;2.10;99.90;;;;;;5009761;28;20264;-72
2023/01/24 06:02:10;;;;;;;6.05;5.45;;;2.10;99.90;;;;;;5016133;28;20319;-72
2023/01/24 06:04:36;;;;;;;7.78;6.00;;;2.10;99.90;;;;;;5015224;28;20221;-73
2023/01/24 06:07:01;;;;;;;7.28;6.10;;;2.10;99.90;;;;;;5018183;28;20181;-81
2023/01/24 06:09:27;;;;;;;6.32;5.72;;;2.10;99.90;;;;;;5025715;28;20172;-79
2023/01/24 06:11:53;;;;;;;6.45;5.80;;;2.20;99.90;;;;;;5023705;28;20181;-79
2023/01/24 06:14:18;;;;;;;6.82;5.78;;;2.30;99.90;;;;;;5014879;28;20302;-79
2023/01/24 06:16:46;;;;;;;6.38;5.78;;;2.20;99.90;;;;;;5019443;28;20547;-78
2023/01/24 06:19:12;;;;;;;5.70;5.10;;;2.30;99.90;;;;;;5020593;28;20197;-79
2023/01/24 06:21:40;;;;;;;7.05;6.32;;;2.40;99.90;;;;;;5019672;28;20239;-73
2023/01/24 06:24:14;;;;;;;7.10;6.40;;;2.50;99.90;;;;;;5019246;28;20209;-74
2023/01/24 06:26:40;;;;;;;6.07;5.47;;;2.50;99.90;;;;;;5021226;28;20185;-72
2023/01/24 06:29:08;;;;;;;6.57;5.93;;;2.50;99.90;;;;;;5029204;28;20196;-73
2023/01/24 06:31:45;;;;;;;7.10;6.20;;;2.60;99.90;;;;;;5013835;28;20235;-77
2023/01/24 06:34:32;;;;;;;5.72;5.15;;;2.60;99.90;;;;;;5033878;28;20203;-77
2023/01/24 06:36:57;;;;;;;5.82;5.22;;;2.70;99.90;;;;;;5014357;28;20691;-75
2023/01/24 06:39:23;;;;;;;6.55;5.80;;;2.70;99.90;;;;;;5020653;28;20190;-75
2023/01/24 06:41:49;;;;;;;6.28;5.68;;;2.80;99.90;;;;;;5013294;28;20223;-74
2023/01/24 06:44:15;;;;;;;8.82;6.60;;;2.70;99.90;;;;;;5027014;28;20194;-74
2023/01/24 06:46:40;;;;;;;7.15;6.32;;;2.70;99.90;;;;;;5018912;28;20257;-73
2023/01/24 06:49:06;;;;;;;6.32;5.72;;;2.70;99.90;;;;;;5027951;28;20176;-73
2023/01/24 06:51:32;;;;;;;7.30;6.60;;;2.70;99.90;;;;;;5020727;28;20679;-73
2023/01/24 06:53:58;;;;;;;6.65;6.05;;;2.80;99.90;;;;;;5029051;28;20196;-73
2023/01/24 06:56:24;;;;;;;6.43;5.47;;;2.80;99.90;;;;;;5011754;28;20177;-74
2023/01/24 06:58:50;;;;;;;7.07;6.38;;;2.80;99.90;;;;;;5022080;28;20196;-74
2023/01/24 07:01:15;;;;;;;6.50;5.90;;;2.80;99.90;;;;;;5013180;28;20185;-76
2023/01/24 07:03:41;;;;;;;6.47;5.88;;;2.90;99.90;;;;;;5011481;28;20204;-75
2023/01/24 07:06:07;;;;;;;6.85;6.20;;;2.80;99.90;;;;;;5012917;28;20238;-74
2023/01/24 07:08:32;;;;;;;7.47;6.57;;;2.90;99.90;;;;;;5017872;28;20187;-78
2023/01/24 07:10:58;;;;;;;8.52;6.55;;;2.90;99.90;;;;;;5022128;28;20216;-79
2023/01/24 07:13:25;;;;;;;7.05;6.38;;;3.00;99.90;;;;;;5017476;28;20279;-73
2023/01/24 07:15:50;;;;;;;7.15;6.35;;;2.90;99.90;;;;;;5021631;28;20173;-77
2023/01/24 07:18:18;;;;;;;8.02;5.90;;;2.90;99.90;;;;;;5022946;28;20173;-75
2023/01/24 07:20:44;;;;;;;6.90;6.20;;;2.90;99.90;;;;;;5020650;28;20586;-75
2023/01/24 07:23:24;;;;;;;6.43;5.82;;;3.00;99.90;;;;;;5015812;28;20678;-75
2023/01/24 07:25:51;;;;;;;7.50;6.65;;;3.00;99.90;;;;;;5008155;28;20538;-75
2023/01/24 07:28:17;;;;;;;7.55;6.18;;;3.10;99.90;;;;;;5011899;28;20215;-75
2023/01/24 07:30:45;;;;;;;6.72;6.13;;;3.10;99.90;;;;;;5004486;28;20707;-75
2023/01/24 07:33:12;;;;;;;8.15;6.30;;;3.20;99.90;;;;;;5015768;28;20176;-73
2023/01/24 07:35:37;;;;;;;6.15;5.55;;;3.20;99.90;;;;;;5011689;28;20177;-74
2023/01/24 07:38:03;;;;;;;7.43;6.30;;;3.30;99.90;;;;;;5019808;28;20185;-76
2023/01/24 07:40:28;;;;;;;6.57;5.97;;;3.40;99.90;;;;;;5015574;28;20177;-74
2023/01/24 07:42:54;;;;;;;7.90;5.93;;;3.40;99.90;;;;;;5026623;28;20265;-75
2023/01/24 07:45:20;;;;;;;6.53;5.93;;;3.40;99.90;;;;;;5028227;28;20208;-74
2023/01/24 07:47:46;;;;;;;6.88;6.18;;;3.40;99.90;;;;;;5011445;28;20196;-73
2023/01/24 07:50:11;;;;;;;7.85;7.05;;;3.40;99.90;;;;;;5018983;28;20207;-75
2023/01/24 07:52:37;;;;;;;7.20;6.50;;;3.40;99.90;;;;;;5025973;28;20251;-74
2023/01/24 07:55:03;;;;;;;6.50;5.90;;;3.50;99.90;;;;;;5016827;28;20576;-75
2023/01/24 07:57:29;;;;;;;7.43;6.63;;;3.60;99.90;;;;;;5008852;28;20180;-75
2023/01/24 07:59:54;;;;;;;9.30;6.32;;;3.70;99.90;;;;;;5025408;28;20181;-75
2023/01/24 08:02:20;;;;;;;7.32;5.72;;;3.90;99.90;;;;;;5017760;28;20194;-74
2023/01/24 08:04:45;;;;;;;6.85;6.18;;;4.00;99.90;;;;;;5018472;28;20217;-74
2023/01/24 08:07:17;;;;;;;6.53;5.88;;;4.00;99.90;;;;;;5023956;28;20180;-75
2023/01/24 08:09:43;;;;;;;7.00;6.03;;;4.00;99.90;;;;;;5015703;28;20276;-75
2023/01/24 08:12:08;;;;;;;7.85;7.05;;;4.10;99.90;;;;;;5025000;28;20761;-75
2023/01/24 08:14:34;;;;;;;6.93;6.30;;;4.20;99.90;;;;;;5019978;28;20279;-75
2023/01/24 08:16:59;;;;;;;6.70;5.95;;;4.30;99.90;;;;;;5023834;28;20177;-75
2023/01/24 08:19:25;;;;;;;6.93;5.95;;;4.30;99.90;;;;;;5021533;28;20303;-75
2023/01/24 08:21:50;;;;;;;8.90;6.35;;;4.30;99.90;;;;;;5021837;28;20188;-77
2023/01/24 08:24:16;;;;;;;7.35;6.20;;;4.30;99.90;;;;;;5029291;28;20215;-76
2023/01/24 08:26:45;;;;;;;8.13;6.45;;;4.30;99.90;;;;;;5029734;28;20199;-77
2023/01/24 08:29:11;;;;;;;8.13;6.93;;;4.40;99.90;;;;;;5016508;28;20164;-77
2023/01/24 08:31:37;;;;;;;7.07;6.40;;;4.50;99.90;;;;;;5024499;28;20659;-77
2023/01/24 08:34:03;;;;;;;9.40;6.35;;;4.60;99.90;;;;;;5032116;28;20594;-77
2023/01/24 08:36:28;;;;;;;7.22;6.55;;;4.70;99.90;;;;;;5025219;28;20171;-76
2023/01/24 08:38:54;;;;;;;8.07;6.90;;;4.70;99.90;;;;;;5029297;28;20538;-78
2023/01/24 08:41:19;;;;;;;7.05;6.13;;;4.80;99.90;;;;;;5018686;28;20188;-77
2023/01/24 08:43:45;;;;;;;9.48;6.85;;;4.80;99.90;;;;;;5027728;28;20288;-77
2023/01/24 08:46:10;;;;;;;6.85;6.25;;;4.90;99.90;;;;;;5016408;28;20185;-78
2023/01/24 08:48:36;;;;;;;6.97;6.30;;;5.00;99.90;;;;;;5022188;28;20796;-78
2023/01/24 08:51:06;;;;;;;6.60;5.95;;;5.00;99.90;;;;;;5024990;28;20242;-78
2023/01/24 08:53:32;;;;;;;7.75;6.85;;;5.10;99.90;;;;;;5031502;28;20197;-78
2023/01/24 08:55:58;;;;;;;6.80;6.18;;;5.10;99.90;;;;;;5029876;28;20263;-78
2023/01/24 08:58:23;;;;;;;7.00;6.38;;;5.20;99.90;;;;;;5019474;28;20256;-78
2023/01/24 09:00:49;;;;;;;6.72;6.10;;;5.30;99.90;;;;;;5011246;28;20688;-78
2023/01/24 09:03:17;;;;;;;8.00;7.20;;;5.40;99.90;;;;;;5013151;28;20189;-78
2023/01/24 09:05:43;;;;;;;7.75;6.45;;;5.50;99.90;;;;;;5007913;28;20235;-78
2023/01/24 09:08:09;;;;;;;7.55;6.75;;;5.50;99.90;;;;;;5017034;28;20213;-78
2023/01/24 09:10:35;;;;;;;7.25;6.55;;;5.50;99.90;;;;;;5016025;28;20339;-78
2023/01/24 09:13:02;;;;;;;7.65;6.43;;;5.60;99.90;;;;;;5017433;28;20185;-78
2023/01/24 09:15:28;;;;;;;5.85;5.32;;;5.70;99.90;;;;;;5017090;28;20185;-78
2023/01/24 09:17:53;;;;;;;6.43;5.85;;;5.80;99.90;;;;;;5029483;28;20195;-78
2023/01/24 09:20:19;;;;;;;6.80;6.10;;;5.90;99.90;;;;;;5034651;28;20182;-78
2023/01/24 09:22:45;;;;;;;8.75;6.80;;;6.10;99.90;;;;;;5015026;28;20184;-78
2023/01/24 09:25:11;;;;;;;7.07;6.38;;;6.20;99.90;;;;;;5020991;28;20280;-78
2023/01/24 09:27:37;;;;;;;7.35;6.65;;;6.10;99.90;;;;;;5023744;28;20667;-78
2023/01/24 09:30:04;;;;;;;9.27;6.55;;;6.20;99.90;;;;;;5014546;28;20201;-78
2023/01/24 09:32:30;;;;;;;6.38;5.78;;;6.40;99.90;;;;;;5013881;28;20177;-78
2023/01/24 09:34:56;;;;;;;7.25;6.43;;;6.40;99.90;;;;;;5013507;28;20200;-78
2023/01/24 09:37:22;;;;;;;6.95;6.20;;;6.50;99.90;;;;;;5020284;28;20166;-78
2023/01/24 09:39:48;;;;;;;6.03;5.53;;;6.60;99.90;;;;;;5018443;28;20184;-78
2023/01/24 09:42:29;;;;;;;7.35;6.60;;;6.70;99.90;;;;;;5034219;28;21018;-78
2023/01/24 09:45:04;;;;;;;7.57;6.88;;;6.80;99.90;;;;;;5005690;28;20209;-78
2023/01/24 09:47:52;;;;;;;7.65;6.32;;;6.90;99.90;;;;;;5022954;28;20278;-78
2023/01/24 09:50:34;;;;;;;6.78;5.90;;;7.10;99.90;;;;;;5011049;28;20732;-80
2023/01/24 09:52:59;;;;;;;6.72;6.03;;;7.40;99.90;;;;;;5007279;28;20180;-81
2023/01/24 09:55:30;;;;;;;6.78;5.97;;;7.70;99.90;;;;;;5017881;28;20193;-81
2023/01/24 09:58:01;;;;;;;7.53;5.88;;;7.80;99.90;;;;;;5015971;28;20174;-81
2023/01/24 10:00:29;;;;;;;6.45;5.75;;;8.10;99.90;;;;;;5020720;28;20177;-78
2023/01/24 10:02:56;;;;;;;6.10;5.60;;;8.20;99.90;;;;;;5013816;28;20173;-78
2023/01/24 10:05:28;;;;;;;7.05;6.35;;;8.70;99.90;;;;;;5016801;28;20640;-78
2023/01/24 10:08:23;;;;;;;5.90;5.38;;;9.20;99.90;;;;;;5021628;28;20184;-78
2023/01/24 10:11:17;;;;;;;8.10;6.40;;;9.50;99.90;;;;;;5022679;28;20679;-77
2023/01/24 10:14:12;;;;;;;6.32;5.72;;;9.60;99.90;;;;;;5002896;28;20189;-78
2023/01/24 10:17:04;;;;;;;6.32;5.72;;;9.10;99.90;;;;;;4995099;28;20595;-78
2023/01/24 10:19:40;;;;;;;10.05;6.30;;;8.60;99.90;;;;;;5009178;28;20184;-77
2023/01/24 10:22:44;;;;;;;7.38;6.15;;;8.20;99.90;;;;;;5016560;28;20184;-77
2023/01/24 10:25:18;;;;;;;6.60;5.93;;;7.90;99.90;;;;;;5015842;28;20216;-78
2023/01/24 10:27:49;;;;;;;6.65;5.80;;;7.80;99.90;;;;;;5016726;28;20548;-76
2023/01/24 10:30:30;;;;;;;9.98;6.20;;;7.80;99.90;;;;;;5012573;28;20706;-77
2023/01/24 10:33:03;;;;;;;6.50;5.68;;;8.00;99.90;;;;;;5022846;28;20639;-77
2023/01/24 10:36:08;;;;;;;6.45;5.85;;;8.10;99.90;;;;;;5019433;28;20173;-77
2023/01/24 10:38:34;;;;;;;6.28;5.45;;;8.30;99.90;;;;;;5009054;28;20279;-77
2023/01/24 10:41:14;;;;;;;6.43;5.82;;;8.50;99.90;;;;;;5017370;28;20185;-78
2023/01/24 10:43:43;;;;;;;6.38;5.70;;;8.80;99.90;;;;;;5016009;28;20250;-78
2023/01/24 10:46:31;;;;;;;6.78;5.78;;;9.10;99.90;;;;;;5012872;28;20176;-77
2023/01/24 10:49:00;;;;;;;6.20;5.70;;;9.20;99.90;;;;;;5016614;28;20182;-78
2023/01/24 10:51:26;;;;;;;6.07;5.47;;;9.40;99.90;;;;;;5016520;28;20228;-78
2023/01/24 10:53:54;;;;;;;6.15;5.43;;;9.50;99.90;;;;;;5022332;28;20197;-79
2023/01/24 10:56:20;;;;;;;6.35;5.75;;;9.30;99.90;;;;;;5017560;28;20269;-79
2023/01/24 10:59:11;;;;;;;6.43;5.38;;;9.10;99.90;;;;;;5019100;28;20201;-79
2023/01/24 11:01:48;;;;;;;6.30;5.28;;;9.10;99.90;;;;;;5010653;28;20170;-79
2023/01/24 11:04:19;;;;;;;6.10;5.30;;;9.30;99.90;;;;;;5031396;28;20219;-79
2023/01/24 11:07:06;;;;;;;5.57;5.07;;;9.60;99.90;;;;;;5088483;27;20531;-78
2023/01/24 11:09:34;;;;;;;5.43;4.93;;;9.70;99.90;;;;;;5071503;28;20179;-78
2023/01/24 11:12:00;;;;;;;6.03;5.53;;;9.80;99.90;;;;;;5062211;28;20259;-78
2023/01/24 11:14:34;;;;;;;5.60;5.10;;;9.50;99.90;;;;;;5067608;28;20219;-78
2023/01/24 11:17:01;;;;;;;5.78;5.28;;;9.50;99.90;;;;;;5061115;28;20199;-78
2023/01/24 11:19:38;;;;;;;8.43;5.47;;;9.40;99.90;;;;;;5073244;28;20163;-78
2023/01/24 11:22:33;;;;;;;6.10;5.50;;;9.30;99.90;;;;;;5063398;28;20183;-78
2023/01/24 11:25:01;;;;;;;6.88;5.25;;;8.90;99.90;;;;;;5067092;28;20352;-77
2023/01/24 11:27:27;;;;;;;5.60;5.10;;;8.80;99.90;;;;;;5078761;28;20261;-77
2023/01/24 11:30:16;;;;;;;5.97;5.28;;;8.70;99.90;;;;;;5070131;28;20203;-78
2023/01/24 11:32:53;;;;;;;5.20;4.70;;;8.80;99.90;;;;;;5054483;28;20203;-78
2023/01/24 11:35:34;;;;;;;6.60;5.13;;;8.90;99.90;;;;;;5059635;28;20202;-78
2023/01/24 11:38:21;;;;;;;5.82;5.22;;;9.20;99.90;;;;;;5069548;28;20172;-78
2023/01/24 11:41:10;;;;;;;5.57;4.47;;;9.20;99.90;;;;;;5067082;28;20184;-77
2023/01/24 11:43:45;;;;;;;4.50;4.20;;;9.40;99.90;;;;;;5070020;28;20256;-78
2023/01/24 11:46:48;;;;;;;5.72;5.25;;;9.40;99.90;;;;;;5057489;28;20914;-77
2023/01/24 11:49:36;;;;;;;5.38;4.95;;;9.10;99.90;;;;;;5057215;28;20945;-77
2023/01/24 11:52:22;;;;;;;5.70;5.20;;;8.80;99.90;;;;;;5065847;28;20206;-76
2023/01/24 11:55:08;;;;;;;5.55;4.75;;;8.60;99.90;;;;;;5060912;28;20581;-75
2023/01/24 11:57:42;;;;;;;5.53;5.10;;;8.60;99.90;;;;;;5071390;28;20179;-75
2023/01/24 12:00:29;;;;;;;5.05;4.55;;;8.40;99.90;;;;;;5063789;28;20189;-79
2023/01/24 12:02:54;;;;;;;4.95;4.57;;;8.50;99.90;;;;;;5068050;28;20176;-75
2023/01/24 12:05:40;;;;;;;5.07;4.68;;;8.60;99.90;;;;;;5066724;28;20593;-75
2023/01/24 12:08:36;;;;;;;5.55;5.05;;;8.60;99.90;;;;;;5022125;28;20191;-75
2023/01/24 12:11:25;;;;;;;6.32;5.72;;;8.60;99.90;;;;;;5060866;28;20257;-75
2023/01/24 12:14:16;;;;;;;6.68;6.07;;;8.30;99.90;;;;;;5058382;28;20332;-75
2023/01/24 12:16:44;;;;;;;6.05;5.55;;;8.30;99.90;;;;;;5062060;28;20227;-75
2023/01/24 12:19:33;;;;;;;6.10;5.60;;;8.10;99.90;;;;;;5058401;28;20181;-75
2023/01/24 12:21:59;;;;;;;7.28;6.03;;;8.10;99.90;;;;;;5051957;28;20686;-75
2023/01/24 12:24:30;;;;;;;8.27;6.55;;;7.90;99.90;;;;;;5052754;28;20218;-75
2023/01/24 12:26:59;;;;;;;5.90;5.40;;;7.90;99.90;;;;;;5045749;28;20172;-75
2023/01/24 12:29:32;;;;;;;5.97;5.47;;;7.80;99.90;;;;;;5049952;28;20278;-76
2023/01/24 12:32:07;;;;;;;6.07;5.57;;;7.80;99.90;;;;;;5051131;28;20180;-75
2023/01/24 12:35:03;;;;;;;6.05;5.43;;;7.70;99.90;;;;;;5059051;28;20191;-75
2023/01/24 12:37:40;;;;;;;6.18;5.57;;;7.70;99.90;;;;;;5053973;28;20182;-76
2023/01/24 12:40:15;;;;;;;6.68;5.53;;;7.40;99.90;;;;;;5051588;28;20202;-75
2023/01/24 12:42:57;;;;;;;7.00;6.30;;;7.40;99.90;;;;;;5056446;28;20198;-75
2023/01/24 12:45:30;;;;;;;6.70;6.00;;;7.60;99.90;;;;;;5047080;28;20266;-76
2023/01/24 12:48:06;;;;;;;6.85;6.22;;;7.50;99.90;;;;;;5050451;28;20180;-75
2023/01/24 12:50:49;;;;;;;6.05;5.45;;;7.50;99.90;;;;;;5049044;28;20195;-75
2023/01/24 12:53:29;;;;;;;7.10;6.25;;;7.80;99.90;;;;;;5051082;28;20746;-75
2023/01/24 12:56:05;;;;;;;5.85;5.35;;;8.20;99.90;;;;;;5061684;28;20178;-75
2023/01/24 12:58:40;;;;;;;6.47;5.95;;;8.60;99.90;;;;;;5055162;28;20172;-75
2023/01/24 13:01:05;;;;;;;7.28;5.65;;;8.70;99.90;;;;;;5046254;28;20176;-76
2023/01/24 13:04:08;;;;;;;7.05;6.40;;;8.60;99.90;;;;;;5046723;28;20203;-75
2023/01/24 13:06:56;;;;;;;7.13;5.88;;;8.30;99.90;;;;;;5049307;28;20248;-75
2023/01/24 13:09:32;;;;;;;8.00;7.25;;;8.20;99.90;;;;;;5052194;28;20164;-75
2023/01/24 13:12:00;;;;;;;8.43;7.47;;;8.10;99.90;;;;;;5048839;28;20180;-75
2023/01/24 13:14:40;;;;;;;7.72;7.03;;;8.10;99.90;;;;;;5044408;28;20246;-76
2023/01/24 13:17:39;;;;;;;8.13;7.32;;;8.00;99.90;;;;;;5056066;28;20191;-76
2023/01/24 13:20:30;;;;;;;7.15;6.45;;;7.70;99.90;;;;;;5047523;28;20176;-75
2023/01/24 13:23:13;;;;;;;7.72;6.93;;;7.80;99.90;;;;;;5046331;28;20179;-75
2023/01/24 13:25:41;;;;;;;8.63;7.78;;;7.70;99.90;;;;;;5039835;28;20231;-75
2023/01/24 13:28:16;;;;;;;8.77;7.03;;;7.50;99.90;;;;;;5054052;28;20182;-75
2023/01/24 13:31:00;;;;;;;9.43;8.20;;;7.30;99.90;;;;;;5053656;28;20243;-76
2023/01/24 13:33:50;;;;;;;8.50;7.57;;;7.10;99.90;;;;;;5043834;28;20308;-75
2023/01/24 13:36:33;;;;;;;7.57;6.82;;;7.00;99.90;;;;;;5048009;28;20267;-75
2023/01/24 13:38:59;;;;;;;9.23;8.07;;;6.90;99.90;;;;;;5051581;28;20301;-75
2023/01/24 13:41:25;;;;;;;8.43;7.63;;;6.70;99.90;;;;;;5048417;28;20611;-75
2023/01/24 13:44:26;;;;;;;8.45;7.53;;;6.70;99.90;;;;;;5047097;28;20281;-75
2023/01/24 13:47:15;;;;;;;8.40;7.50;;;6.70;99.90;;;;;;5067842;28;20680;-75
2023/01/24 13:49:50;;;;;;;8.07;7.30;;;6.60;99.90;;;;;;5042201;28;20188;-76
2023/01/24 13:52:30;;;;;;;9.15;7.15;;;6.60;99.90;;;;;;5041578;28;20180;-75